Saint Ann, Missouri
Current Conditions -  °F | °C
As of 2:51 PM on Tuesday 21 Oct 2014 (Local Time) from KSTL Reporting Station
Clear Clear  
Wind Chill: 67°   Ceiling: Unl
Heat Index: 67°   Visibility: 10mi
Dew Point: 44°   Wind: 8mph
Humidity: 44%   Direction: 350°N
Pressure: 30.11"   Gusts: NA
Location:  38.73°N, 90.38°W
Report Text: KSTL 211951Z 35007KT 10SM CLR 19/07 A3011 RMK AO2 SLP196 T01940067
Loading
Personal Weather Stations






























Interactive Weather Map
Tropical Storm Tracking
New forecast layout! Learn more

10-Day Weather Forecast

Advertisements
Track Severe Weather on mobile